Time;durP1;ratioP1;P1;durP2;ratioP2;P2;SDS_P1;SDS_P2;PMS_P1;PMS_P2;Temp;Humidity;BMP_temperature;BMP_pressure;BME280_temperature;BME280_humidity;BME280_pressure;Samples;Min_cycle;Max_cycle;Signal;HPM_P1;HPM_P2
2022/02/06 00:00:41;;;;;;;2.70;2.50;;;;;;;16.56;44.10;97613.72;4936009;29;20239;-80
2022/02/06 00:03:08;;;;;;;3.53;2.70;;;;;;;18.48;44.10;97896.84;4935212;29;20581;-80
2022/02/06 00:05:37;;;;;;;2.60;2.40;;;;;;;14.93;43.84;97309.66;4920338;29;20208;-80
2022/02/06 00:08:11;;;;;;;2.60;2.40;;;;;;;16.47;43.98;97581.94;4935920;29;20233;-80
2022/02/06 00:10:38;;;;;;;2.97;2.60;;;;;;;18.79;43.99;97940.72;4905171;29;20707;-80
2022/02/06 00:13:13;;;;;;;2.43;2.23;;;;;;;17.69;44.04;97771.72;4952177;29;20220;-81
2022/02/06 00:15:43;;;;;;;2.50;2.30;;;;;;;17.58;44.55;97755.97;4918858;29;20210;-80
2022/02/06 00:18:09;;;;;;;2.70;2.50;;;;;;;18.78;44.18;97941.53;4919505;29;20234;-80
2022/02/06 00:20:47;;;;;;;2.83;2.53;;;;;;;18.78;43.90;97945.75;4934772;29;20312;-81
2022/02/06 00:23:15;;;;;;;2.50;2.30;;;;;;;14.24;44.32;97148.47;4935478;29;20204;-80
2022/02/06 00:28:41;;;;;;;3.60;2.80;;;;;;;13.71;44.12;97122.03;4952121;29;20204;-78
2022/02/06 00:31:20;;;;;;;2.80;2.40;;;;;;;18.75;44.17;97946.50;4936123;29;20204;-79
2022/02/06 00:34:15;;;;;;;3.40;2.60;;;;;;;18.76;44.37;97937.16;4951472;29;20312;-81
2022/02/06 00:39:19;;;;;;;2.60;2.40;;;;;;;18.54;44.14;97912.38;4960731;23;20236;-86
2022/02/06 00:41:45;;;;;;;2.60;2.40;;;;;;;18.48;44.20;97883.22;4902589;29;20291;-86
2022/02/06 00:44:13;;;;;;;2.60;2.40;;;;;;;18.43;44.23;97877.91;4903064;29;20243;-85
2022/02/06 00:46:40;;;;;;;2.77;2.53;;;;;;;18.50;44.11;97886.72;4903263;29;20275;-86
2022/02/06 00:49:25;;;;;;;2.60;2.40;;;;;;;18.10;44.30;97812.72;4899815;29;20315;-85
2022/02/06 00:54:18;;;;;;;2.57;2.37;;;;;;;18.56;44.17;97894.66;4909339;29;20287;-86
2022/02/06 00:56:45;;;;;;;2.60;2.40;;;;;;;18.60;44.12;97894.88;4899318;29;20697;-85
2022/02/06 00:59:12;;;;;;;2.30;2.10;;;;;;;18.64;44.22;97903.50;4899772;29;20525;-85
2022/02/06 01:01:41;;;;;;;2.70;2.50;;;;;;;18.05;44.22;97807.41;4914741;29;20300;-86
2022/02/06 01:04:11;;;;;;;4.40;2.50;;;;;;;18.22;44.17;97831.09;4907789;29;20720;-85
2022/02/06 01:06:38;;;;;;;2.57;2.37;;;;;;;18.57;44.32;97891.28;4918836;29;20307;-85
2022/02/06 01:41:22;;;;;;;2.43;2.23;;;;;;;18.69;44.68;97884.22;4949370;28;20207;-85
2022/02/06 01:44:04;;;;;;;2.57;2.37;;;;;;;18.50;44.63;97851.09;4933494;29;20291;-85
2022/02/06 02:29:26;;;;;;;2.57;2.37;;;;;;;18.14;44.13;97734.06;4941013;29;20300;-86
2022/02/06 02:45:47;;;;;;;1.97;1.87;;;;;;;18.50;44.61;97767.97;4935497;29;20307;-86
2022/02/06 02:48:14;;;;;;;1.90;1.80;;;;;;;18.42;44.72;97746.41;4948209;29;20681;-86
2022/02/06 02:50:47;;;;;;;2.30;2.10;;;;;;;18.30;44.75;97727.13;4937512;29;20228;-86
2022/02/06 02:53:30;;;;;;;2.40;2.20;;;;;;;18.71;44.58;97790.97;4956250;28;20224;-86
2022/02/06 03:03:34;;;;;;;2.50;2.30;;;;;;;18.46;44.56;97727.03;4933660;29;20267;-86
2022/02/06 03:06:03;;;;;;;2.20;2.00;;;;;;;18.47;44.62;97724.56;4932676;29;20220;-85
2022/02/06 03:08:31;;;;;;;2.20;2.00;;;;;;;18.53;44.67;97729.06;4935590;29;20280;-86
2022/02/06 03:11:00;;;;;;;2.17;1.97;;;;;;;18.12;44.86;97661.06;4941307;28;20226;-86
2022/02/06 03:13:57;;;;;;;1.87;1.77;;;;;;;18.58;44.42;97720.81;4944908;29;20213;-86
2022/02/06 03:45:57;;;;;;;2.30;2.10;;;;;;;18.43;44.75;97655.66;5592421;23;20243;-85
2022/02/06 03:48:33;;;;;;;2.03;1.83;;;;;;;18.38;44.70;97647.81;4902412;29;20271;-86
2022/02/06 03:51:06;;;;;;;2.00;1.90;;;;;;;18.55;44.68;97666.38;4904900;29;20270;-86
2022/02/06 03:53:32;;;;;;;2.07;1.87;;;;;;;18.46;44.69;97649.03;4895705;29;20315;-87
2022/02/06 03:56:00;;;;;;;2.20;2.00;;;;;;;18.61;44.74;97669.16;4904446;29;20725;-86
2022/02/06 03:58:27;;;;;;;2.13;1.97;;;;;;;18.40;44.42;97627.53;4919664;29;20220;-86
2022/02/06 04:00:53;;;;;;;2.33;2.10;;;;;;;18.39;44.74;97620.72;4900855;29;20269;-86
2022/02/06 04:03:20;;;;;;;2.23;2.00;;;;;;;17.90;44.42;97527.00;4916882;29;20208;-86
2022/02/06 04:05:49;;;;;;;2.20;2.00;;;;;;;18.42;44.66;97613.22;4929233;29;20208;-86
2022/02/06 04:08:17;;;;;;;1.77;1.67;;;;;;;18.34;44.54;97602.69;4921942;29;20418;-86
2022/02/06 04:10:48;;;;;;;1.90;1.80;;;;;;;18.30;44.54;97587.22;4921307;29;20311;-86
2022/02/06 04:13:18;;;;;;;2.20;2.00;;;;;;;18.55;44.63;97633.28;4910543;29;20641;-86
2022/02/06 04:15:47;;;;;;;2.07;1.90;;;;;;;18.30;44.77;97590.63;4916294;29;20235;-86
2022/02/06 04:18:18;;;;;;;2.20;2.00;;;;;;;18.51;44.85;97623.78;4885536;29;20236;-86
2022/02/06 04:20:44;;;;;;;2.10;1.80;;;;;;;18.05;44.53;97540.38;4901035;29;20259;-87
2022/02/06 04:23:11;;;;;;;2.07;1.90;;;;;;;18.69;44.51;97648.34;4928935;29;20294;-87
2022/02/06 04:25:37;;;;;;;1.97;1.70;;;;;;;18.56;44.62;97624.88;4913694;29;20279;-87
2022/02/06 04:28:24;;;;;;;1.90;1.80;;;;;;;18.74;44.55;97649.41;4911562;29;20496;-86
2022/02/06 04:30:51;;;;;;;1.93;1.73;;;;;;;18.70;44.58;97633.94;4934762;29;20275;-86
2022/02/06 04:33:19;;;;;;;2.20;2.00;;;;;;;18.49;44.82;97605.03;4908315;29;20657;-86
2022/02/06 04:35:47;;;;;;;2.20;2.00;;;;;;;18.55;44.58;97608.72;4903938;29;20208;-86
2022/02/06 04:41:12;;;;;;;1.97;1.87;;;;;;;18.30;44.96;97565.19;4929841;29;20224;-86
2022/02/06 04:44:17;;;;;;;2.27;2.07;;;;;;;18.51;44.75;97608.53;4926653;29;20200;-86
2022/02/06 04:55:08;;;;;;;2.10;2.00;;;;;;;18.26;44.38;97565.00;4919131;29;20315;-87
2022/02/06 05:29:53;;;;;;;2.10;1.90;;;;;;;18.32;45.07;97583.06;4920972;28;20319;-86
2022/02/06 05:32:21;;;;;;;1.80;1.70;;;;;;;18.51;44.97;97621.25;4922973;29;20236;-86
2022/02/06 05:34:48;;;;;;;1.90;1.80;;;;;;;18.63;45.07;97644.66;4935500;29;20814;-85
2022/02/06 05:37:16;;;;;;;2.00;1.77;;;;;;;18.43;45.04;97602.22;4918340;29;20261;-86
2022/02/06 05:39:42;;;;;;;2.13;1.93;;;;;;;18.41;45.06;97601.31;4917267;29;20307;-87
2022/02/06 05:42:09;;;;;;;2.00;1.80;;;;;;;18.39;44.70;97597.81;4917391;29;20381;-86
2022/02/06 05:44:36;;;;;;;1.73;1.63;;;;;;;18.30;44.81;97584.66;4917954;29;20290;-86
2022/02/06 05:47:03;;;;;;;1.93;1.83;;;;;;;18.44;45.22;97607.38;4901116;29;20224;-86
2022/02/06 05:49:29;;;;;;;1.50;1.40;;;;;;;18.59;44.82;97628.38;4885918;29;20319;-87
2022/02/06 05:51:56;;;;;;;2.10;1.90;;;;;;;18.25;44.87;97559.03;4931389;29;20300;-85
2022/02/06 05:54:23;;;;;;;2.43;1.80;;;;;;;18.42;44.81;97600.50;4943964;29;20330;-86
2022/02/06 05:56:49;;;;;;;1.77;1.67;;;;;;;18.48;44.96;97613.47;4898857;29;20303;-86
2022/02/06 05:59:16;;;;;;;1.70;1.60;;;;;;;18.51;45.14;97608.53;4919100;29;20584;-86
2022/02/06 06:01:42;;;;;;;1.73;1.63;;;;;;;18.45;45.01;97598.97;4900172;29;20283;-87
2022/02/06 06:04:09;;;;;;;1.80;1.70;;;;;;;18.39;45.04;97585.09;4896154;29;20744;-86
2022/02/06 06:06:36;;;;;;;2.07;1.87;;;;;;;18.54;44.89;97604.44;4919808;29;20223;-86
2022/02/06 06:09:03;;;;;;;1.80;1.70;;;;;;;18.38;45.07;97576.59;4917279;29;20216;-87
2022/02/06 06:11:29;;;;;;;1.80;1.70;;;;;;;18.45;44.97;97578.59;4913445;29;20714;-86
2022/02/06 06:13:56;;;;;;;1.70;1.60;;;;;;;18.30;45.09;97549.94;4912390;29;20681;-86
2022/02/06 06:16:23;;;;;;;1.70;1.60;;;;;;;18.38;44.99;97561.31;4898982;29;20284;-87
2022/02/06 06:18:49;;;;;;;1.80;1.70;;;;;;;18.39;44.68;97564.75;4912615;28;20204;-87
2022/02/06 06:21:19;;;;;;;2.40;1.60;;;;;;;18.29;44.96;97538.00;4897332;29;20639;-87
2022/02/06 06:23:45;;;;;;;1.97;1.77;;;;;;;17.99;44.68;97496.03;4900215;29;20200;-87
2022/02/06 06:26:16;;;;;;;1.77;1.67;;;;;;;18.36;44.83;97556.94;4913522;29;20297;-87
2022/02/06 06:28:42;;;;;;;1.87;1.70;;;;;;;18.43;44.71;97572.56;4915986;29;20200;-87
2022/02/06 06:31:10;;;;;;;1.63;1.53;;;;;;;18.60;44.92;97598.72;4895724;29;20762;-87
2022/02/06 06:33:36;;;;;;;1.87;1.70;;;;;;;18.43;44.89;97564.94;4898608;29;20666;-86
2022/02/06 06:36:04;;;;;;;1.90;1.80;;;;;;;18.59;44.72;97602.94;4884226;29;20726;-86
2022/02/06 06:38:33;;;;;;;1.90;1.67;;;;;;;18.52;44.88;97587.34;4949512;29;20280;-87
2022/02/06 06:41:03;;;;;;;1.87;1.77;;;;;;;18.40;45.11;97563.94;4898528;29;20744;-86
2022/02/06 06:43:30;;;;;;;1.90;1.53;;;;;;;18.39;44.73;97557.13;4914105;29;20300;-86
2022/02/06 06:45:57;;;;;;;1.60;1.50;;;;;;;18.42;44.87;97568.28;4901196;29;20303;-87
2022/02/06 06:48:24;;;;;;;1.60;1.50;;;;;;;18.30;44.94;97551.59;4935102;29;20205;-86
2022/02/06 06:50:52;;;;;;;1.50;1.40;;;;;;;18.42;44.94;97570.84;4925237;28;20220;-87
2022/02/06 06:53:18;;;;;;;1.50;1.40;;;;;;;18.49;44.62;97585.56;4919145;29;20697;-86
2022/02/06 08:04:10;;;;;;;4.80;1.60;;;;;;;18.65;43.61;97459.81;4934282;23;20234;-88
2022/02/06 08:06:37;;;;;;;4.57;1.80;;;;;;;18.65;43.86;97457.25;4882876;29;20289;-88
2022/02/06 08:09:04;;;;;;;4.80;1.73;;;;;;;18.57;43.80;97444.22;4865857;29;20293;-87
2022/02/06 08:11:43;;;;;;;3.00;1.63;;;;;;;18.67;43.97;97473.44;4864375;29;20214;-89
2022/02/06 08:14:09;;;;;;;2.63;2.00;;;;;;;18.72;44.00;97477.91;4865211;29;20671;-87
2022/02/06 08:16:36;;;;;;;2.37;1.60;;;;;;;18.64;43.96;97470.78;4878631;29;20751;-89
2022/02/06 08:19:03;;;;;;;1.90;1.70;;;;;;;18.64;43.56;97469.09;4865309;29;20244;-86
2022/02/06 08:21:29;;;;;;;4.40;1.67;;;;;;;18.69;44.02;97466.75;4865647;29;20289;-87
2022/02/06 08:23:56;;;;;;;2.40;1.93;;;;;;;18.64;43.56;97463.13;4880111;29;20285;-88
2022/02/06 08:26:25;;;;;;;2.67;2.00;;;;;;;18.70;43.13;97463.38;4887412;29;20244;-88
2022/02/06 08:28:57;;;;;;;8.33;1.97;;;;;;;18.61;41.92;97435.91;4881334;29;20214;-88
2022/02/06 08:31:24;;;;;;;3.30;1.87;;;;;;;18.66;41.00;97448.81;4887381;29;20348;-87
2022/02/06 08:33:51;;;;;;;9.17;2.30;;;;;;;18.60;41.29;97411.25;4892595;29;20304;-87
2022/02/06 08:36:17;;;;;;;4.90;2.00;;;;;;;18.71;41.07;97437.13;4914368;29;20296;-87
2022/02/06 08:39:02;;;;;;;3.97;2.03;;;;;;;18.41;40.58;97373.16;4862762;29;20215;-88
2022/02/06 08:41:29;;;;;;;5.50;1.97;;;;;;;18.80;40.14;97438.34;4849363;29;20198;-85
2022/02/06 08:43:56;;;;;;;4.33;1.90;;;;;;;18.69;40.42;97423.47;4895579;29;20294;-86
2022/02/06 08:46:22;;;;;;;6.20;2.47;;;;;;;18.68;40.55;97414.09;4848693;29;20571;-86
2022/02/06 08:48:49;;;;;;;6.87;2.10;;;;;;;18.64;41.19;97404.59;4890234;29;20244;-86
2022/02/06 08:51:15;;;;;;;5.13;2.07;;;;;;;18.62;41.23;97401.97;4864875;29;20209;-87
2022/02/06 08:53:42;;;;;;;8.47;2.10;;;;;;;18.70;41.28;97412.47;4880225;29;20312;-86
2022/02/06 08:56:09;;;;;;;3.10;2.07;;;;;;;18.60;41.70;97390.03;4879894;29;20313;-87
2022/02/06 08:58:35;;;;;;;4.63;2.10;;;;;;;18.49;41.55;97360.75;4880433;29;20270;-89
2022/02/06 09:01:02;;;;;;;4.03;2.00;;;;;;;18.61;41.85;97381.56;4880151;29;20317;-86
2022/02/06 09:03:29;;;;;;;2.93;2.07;;;;;;;18.51;42.07;97354.91;4865081;29;20209;-86
2022/02/06 09:05:56;;;;;;;3.87;1.93;;;;;;;18.48;42.14;97344.63;4896190;29;20224;-87
2022/02/06 09:08:22;;;;;;;3.10;1.70;;;;;;;18.59;42.41;97373.03;4883706;29;20294;-87
2022/02/06 09:10:49;;;;;;;3.80;1.90;;;;;;;18.66;42.47;97386.03;4877294;29;20231;-86
2022/02/06 09:13:18;;;;;;;4.80;1.93;;;;;;;18.75;42.31;97405.88;4877743;29;20770;-86
2022/02/06 09:15:45;;;;;;;4.50;2.00;;;;;;;18.51;42.72;97364.22;4877751;29;20203;-86
2022/02/06 09:18:11;;;;;;;6.43;2.00;;;;;;;18.57;42.34;97367.88;4872208;29;20756;-86
2022/02/06 09:20:38;;;;;;;6.30;2.20;;;;;;;18.57;42.26;97360.25;4865231;29;20249;-86
2022/02/06 09:55:22;;;;;;;5.30;1.73;;;;;;;18.41;43.35;97316.34;5144896;23;20242;-86
2022/02/06 09:58:11;;;;;;;1.70;1.50;;;;;;;18.23;43.16;97281.72;4865627;29;20206;-86
2022/02/06 10:00:38;;;;;;;5.03;2.10;;;;;;;18.48;43.02;97314.09;4854526;29;20250;-85
2022/02/06 10:03:06;;;;;;;1.87;1.63;;;;;;;18.61;42.82;97335.75;4858299;29;20221;-86
2022/02/06 10:05:35;;;;;;;4.73;1.80;;;;;;;18.66;43.04;97335.13;4868786;29;20237;-87
2022/02/06 10:08:13;;;;;;;4.83;1.60;;;;;;;18.77;43.07;97353.34;4879904;29;20210;-86
2022/02/06 10:10:42;;;;;;;2.37;1.80;;;;;;;18.87;43.19;97365.59;4881047;29;20599;-88
2022/02/06 10:13:08;;;;;;;1.57;1.43;;;;;;;18.25;43.28;97256.34;4866152;29;20285;-85
2022/02/06 10:15:35;;;;;;;2.83;1.40;;;;;;;18.88;43.41;97347.84;4865979;29;20313;-85
2022/02/06 10:18:03;;;;;;;2.07;1.57;;;;;;;18.77;43.18;97305.84;4865829;29;20270;-86
2022/02/06 10:20:34;;;;;;;3.63;1.80;;;;;;;18.62;43.19;97273.88;4880072;29;20970;-85
2022/02/06 10:23:07;;;;;;;3.47;1.80;;;;;;;18.91;43.34;97321.63;4878819;29;20301;-86
2022/02/06 10:25:40;;;;;;;3.50;1.90;;;;;;;18.34;43.12;97216.00;4882436;29;20317;-87
2022/02/06 10:30:50;;;;;;;3.10;1.87;;;;;;;18.83;43.18;97285.69;4878617;29;20249;-86
2022/02/06 10:33:21;;;;;;;2.00;1.53;;;;;;;18.59;43.44;97233.06;4863563;29;20233;-85
2022/02/06 10:35:53;;;;;;;3.57;1.60;;;;;;;18.64;43.54;97229.84;4877465;29;20321;-85
2022/02/06 10:38:22;;;;;;;1.77;1.50;;;;;;;18.93;43.34;97276.72;4879219;29;20272;-85
2022/02/06 10:41:24;;;;;;;2.77;1.70;;;;;;;18.94;43.36;97260.59;4901629;29;20225;-86
2022/02/06 10:44:07;;;;;;;2.20;1.63;;;;;;;18.67;43.71;97204.50;4863564;29;20312;-85
2022/02/06 10:46:56;;;;;;;2.00;1.60;;;;;;;18.69;43.44;97197.81;4877756;29;20202;-86
2022/02/06 10:49:24;;;;;;;3.80;1.67;;;;;;;18.85;43.54;97215.34;4894112;29;20221;-86
2022/02/06 10:51:58;;;;;;;2.00;1.37;;;;;;;18.69;43.70;97176.56;4878603;29;20198;-86
2022/02/06 10:54:28;;;;;;;2.10;1.60;;;;;;;18.67;43.80;97184.16;4863363;29;20308;-86
2022/02/06 10:57:11;;;;;;;3.63;1.80;;;;;;;18.93;43.76;97213.06;4879103;29;20574;-87
2022/02/06 10:59:43;;;;;;;4.37;2.03;;;;;;;18.93;43.63;97207.97;4878247;29;20225;-86
2022/02/06 11:02:30;;;;;;;2.50;1.60;;;;;;;18.67;43.59;97148.53;4888231;29;20367;-86
2022/02/06 11:04:59;;;;;;;4.00;2.00;;;;;;;18.92;43.34;97183.31;4881144;29;20273;-87
2022/02/06 11:07:26;;;;;;;4.13;1.77;;;;;;;18.67;43.54;97128.16;4886024;29;20241;-86
2022/02/06 11:10:12;;;;;;;2.30;1.60;;;;;;;18.85;43.72;97143.16;4863770;29;20317;-86
2022/02/06 11:12:42;;;;;;;2.67;1.70;;;;;;;18.16;43.47;97040.72;4864442;29;20228;-87
2022/02/06 11:15:31;;;;;;;3.77;1.83;;;;;;;18.69;43.51;97124.00;4862836;29;20226;-87
2022/02/06 11:18:23;;;;;;;1.67;1.40;;;;;;;18.49;43.45;97079.19;4878279;29;20258;-87
2022/02/06 11:21:02;;;;;;;2.47;1.60;;;;;;;18.87;43.56;97147.53;4863493;29;20340;-85
2022/02/06 11:23:38;;;;;;;2.93;1.77;;;;;;;18.86;43.54;97133.03;4893295;29;20243;-86
2022/02/06 11:26:09;;;;;;;2.67;1.80;;;;;;;18.62;43.66;97080.47;4893194;29;20209;-86
2022/02/06 11:28:37;;;;;;;2.50;1.80;;;;;;;18.62;44.09;97066.03;4878398;29;20241;-85
2022/02/06 11:31:05;;;;;;;2.87;2.03;;;;;;;18.47;43.79;97041.78;4878136;29;20309;-85
2022/02/06 11:33:31;;;;;;;2.50;1.80;;;;;;;18.60;43.78;97054.09;4873187;29;20231;-86
2022/02/06 11:36:06;;;;;;;2.50;1.60;;;;;;;18.64;43.69;97063.56;4877799;29;20252;-85
2022/02/06 11:44:37;;;;;;;2.83;2.00;;;;;;;18.55;43.65;97046.31;4894469;29;20258;-86
2022/02/06 11:47:10;;;;;;;2.87;2.00;;;;;;;18.62;43.57;97043.13;4876859;29;20682;-86
2022/02/06 11:49:42;;;;;;;2.07;1.53;;;;;;;18.79;43.88;97069.16;4892941;29;20260;-86
2022/02/06 11:52:08;;;;;;;2.77;2.00;;;;;;;18.08;43.50;96954.78;4874788;29;20207;-86
2022/02/06 11:54:48;;;;;;;3.90;1.90;;;;;;;18.63;43.90;97033.84;4859592;29;20326;-88
2022/02/06 12:00:02;;;;;;;2.57;1.73;;;;;;;18.79;43.87;97053.88;4886687;29;20262;-86
2022/02/06 12:02:30;;;;;;;2.83;1.93;;;;;;;18.63;43.87;97018.56;4892532;29;20286;-86
2022/02/06 12:05:18;;;;;;;4.03;1.93;;;;;;;18.76;44.16;97043.59;4873538;29;20227;-87
2022/02/06 12:07:51;;;;;;;2.23;1.70;;;;;;;18.75;44.08;97040.19;4879803;29;20211;-86
2022/02/06 12:10:21;;;;;;;2.50;2.00;;;;;;;18.50;44.06;96986.75;4874157;29;20269;-86
2022/02/06 12:13:13;;;;;;;2.87;2.00;;;;;;;18.75;44.05;97024.06;4861840;29;20274;-86
2022/02/06 12:15:52;;;;;;;3.90;1.90;;;;;;;18.73;44.16;97012.94;4865291;29;20227;-86
2022/02/06 12:18:38;;;;;;;4.50;1.70;;;;;;;18.60;44.39;96999.00;4862381;29;20209;-86
2022/02/06 12:21:19;;;;;;;1.80;1.67;;;;;;;18.17;44.61;96915.28;4864257;29;20298;-85
2022/02/06 12:23:50;;;;;;;3.57;2.23;;;;;;;18.44;43.43;96952.66;4863616;29;20295;-85
2022/02/06 12:29:09;;;;;;;3.37;2.00;;;;;;;18.68;42.54;96989.88;4896120;29;20884;-85
2022/02/06 12:31:56;;;;;;;2.53;1.73;;;;;;;18.44;43.52;96939.94;4895837;29;20285;-86
2022/02/06 12:37:40;;;;;;;3.63;1.67;;;;;;;18.11;43.87;96887.13;4881959;29;20864;-84
2022/02/06 12:40:06;;;;;;;2.50;1.83;;;;;;;18.67;44.30;96969.47;4865712;29;20313;-86
2022/02/06 12:42:39;;;;;;;3.57;2.03;;;;;;;18.67;44.24;96966.94;4896350;29;20215;-85
2022/02/06 12:45:13;;;;;;;3.87;1.70;;;;;;;18.45;44.13;96928.91;4897029;29;20571;-85
2022/02/06 12:47:45;;;;;;;3.17;2.07;;;;;;;18.53;44.56;96930.03;4863451;29;20197;-85
2022/02/06 12:50:13;;;;;;;8.53;2.23;;;;;;;18.40;44.34;96902.47;4865111;29;20317;-86
2022/02/06 12:52:39;;;;;;;4.60;1.73;;;;;;;18.45;44.78;96908.56;4880546;29;20230;-86
2022/02/06 12:55:06;;;;;;;5.13;1.80;;;;;;;18.27;44.86;96870.69;4880985;29;20313;-85
2022/02/06 12:57:59;;;;;;;3.60;1.80;;;;;;;18.63;44.94;96917.66;4864941;29;20220;-85
2022/02/06 13:00:27;;;;;;;6.97;2.30;;;;;;;18.48;44.88;96891.72;4867376;29;20332;-85
2022/02/06 13:03:12;;;;;;;4.70;1.73;;;;;;;18.47;44.94;96886.59;4879720;29;20285;-85
2022/02/06 13:05:47;;;;;;;2.27;1.70;;;;;;;18.60;45.21;96902.28;4893635;29;20278;-85
2022/02/06 13:08:14;;;;;;;3.23;1.70;;;;;;;18.55;45.21;96880.91;4866163;29;20285;-85
2022/02/06 13:11:07;;;;;;;5.13;1.70;;;;;;;18.61;45.07;96877.69;4864943;29;20223;-85
2022/02/06 13:13:49;;;;;;;2.60;1.77;;;;;;;18.75;45.10;96904.41;4881325;29;20273;-85
2022/02/06 13:16:44;;;;;;;6.73;1.80;;;;;;;18.76;45.15;96883.22;4895920;29;20218;-85
2022/02/06 13:19:22;;;;;;;5.30;1.70;;;;;;;18.77;45.05;96869.72;4871579;29;20298;-85
2022/02/06 13:22:14;;;;;;;4.30;2.00;;;;;;;18.51;45.42;96828.22;4879805;29;20736;-86
2022/02/06 13:33:37;;;;;;;3.93;1.70;;;;;;;18.55;45.50;96798.63;4872014;29;20684;-85
2022/02/06 13:38:56;;;;;;;5.07;1.67;;;;;;;18.55;45.69;96791.84;4895338;29;21058;-86
2022/02/06 13:41:27;;;;;;;7.03;1.77;;;;;;;18.66;45.43;96804.88;4861931;29;20230;-85
2022/02/06 13:43:56;;;;;;;6.53;1.87;;;;;;;18.65;45.31;96795.53;4874854;29;20235;-85
2022/02/06 13:46:34;;;;;;;8.97;2.30;;;;;;;18.80;45.34;96801.06;4865154;29;20713;-86
2022/02/06 13:49:01;;;;;;;5.53;1.73;;;;;;;18.64;44.82;96768.34;4864654;29;20668;-86
2022/02/06 13:51:32;;;;;;;9.43;1.90;;;;;;;18.65;45.59;96768.38;4877587;29;20234;-86
2022/02/06 13:54:04;;;;;;;3.93;1.90;;;;;;;18.22;45.50;96678.94;4871602;29;20215;-86
2022/02/06 16:49:17;;;;;;;8.93;2.90;;;;;;;18.96;45.74;96501.13;5199014;23;20239;-85
2022/02/06 16:51:44;;;;;;;7.93;3.07;;;;;;;18.93;45.32;96497.63;4840044;29;20204;-84
2022/02/06 16:54:10;;;;;;;11.90;3.20;;;;;;;18.87;45.63;96482.22;4843439;29;20287;-84
2022/02/06 17:26:18;;;;;;;6.17;3.07;;;;;;;18.94;45.34;96461.16;5065434;23;20237;-85
2022/02/06 17:28:44;;;;;;;11.07;3.30;;;;;;;18.86;45.26;96443.16;4862837;29;20245;-86
2022/02/06 17:31:11;;;;;;;8.17;3.13;;;;;;;18.62;45.31;96390.88;4860258;29;20866;-87
2022/02/06 17:33:38;;;;;;;8.47;3.03;;;;;;;18.94;45.55;96444.19;4898501;29;20212;-86
2022/02/06 17:36:05;;;;;;;11.63;3.17;;;;;;;18.92;45.64;96434.81;4895574;29;20217;-85
2022/02/06 17:38:32;;;;;;;8.80;3.27;;;;;;;18.91;45.80;96436.50;4863625;29;20206;-86
2022/02/06 17:40:58;;;;;;;4.27;2.80;;;;;;;18.93;45.39;96424.66;4862196;29;20242;-85
2022/02/06 17:43:30;;;;;;;6.30;2.53;;;;;;;18.89;45.46;96427.13;4878219;29;20661;-85
2022/02/06 17:45:59;;;;;;;7.27;2.50;;;;;;;19.08;45.39;96455.56;4863984;29;20695;-85
2022/02/06 17:48:25;;;;;;;8.33;3.20;;;;;;;18.90;45.20;96411.88;4864504;29;20233;-85
2022/02/06 17:50:58;;;;;;;6.90;3.17;;;;;;;18.82;45.21;96400.66;4879067;29;20226;-85
2022/02/06 17:53:24;;;;;;;5.40;2.67;;;;;;;19.04;45.35;96420.66;4864745;29;20286;-86
2022/02/06 17:55:51;;;;;;;8.90;2.77;;;;;;;18.86;45.42;96383.78;4878561;29;20225;-86
2022/02/06 17:58:17;;;;;;;6.93;2.80;;;;;;;18.90;45.39;96386.41;4862954;29;20292;-85
2022/02/06 18:00:46;;;;;;;5.80;2.77;;;;;;;18.85;45.80;96382.03;4878361;29;20313;-85
2022/02/06 18:03:14;;;;;;;6.53;2.80;;;;;;;18.97;45.48;96395.91;4863934;29;20190;-85
2022/02/06 18:05:41;;;;;;;5.47;2.97;;;;;;;18.86;45.39;96369.34;4893589;29;20379;-85
2022/02/06 18:08:08;;;;;;;5.57;2.33;;;;;;;18.77;45.26;96347.94;4871751;29;20290;-85
2022/02/06 18:10:35;;;;;;;7.83;2.77;;;;;;;18.91;45.19;96366.91;4902294;29;20285;-86
2022/02/06 18:13:01;;;;;;;7.23;2.50;;;;;;;18.92;45.62;96373.72;4862683;29;20739;-86
2022/02/06 18:15:29;;;;;;;9.03;3.03;;;;;;;18.83;45.27;96355.72;4883571;29;20719;-85
2022/02/06 18:17:56;;;;;;;5.33;2.50;;;;;;;18.80;45.65;96345.47;4878397;29;20301;-85
2022/02/06 18:20:23;;;;;;;4.97;2.90;;;;;;;18.64;45.30;96334.09;4861504;29;20257;-85
2022/02/06 18:22:53;;;;;;;7.90;2.60;;;;;;;18.81;45.31;96355.69;4878265;29;20233;-85
2022/02/06 18:25:21;;;;;;;5.03;2.23;;;;;;;18.93;45.65;96372.88;4864158;29;20289;-87
2022/02/06 18:27:48;;;;;;;5.50;2.50;;;;;;;18.87;45.58;96338.00;4862581;29;20289;-84
2022/02/06 18:30:14;;;;;;;4.60;2.60;;;;;;;18.89;45.48;96345.66;4877449;29;20285;-84
2022/02/06 18:32:41;;;;;;;6.93;2.70;;;;;;;18.86;45.42;96343.06;4893421;29;20574;-85
2022/02/06 18:35:08;;;;;;;4.77;2.47;;;;;;;18.90;45.60;96347.38;4877820;29;20206;-85
2022/02/06 18:37:34;;;;;;;5.10;2.33;;;;;;;18.89;45.58;96346.50;4877853;29;20633;-84
2022/02/06 18:40:01;;;;;;;6.60;2.50;;;;;;;18.92;45.87;96343.19;4861900;29;20325;-85
2022/02/06 18:42:28;;;;;;;5.87;2.40;;;;;;;18.89;45.86;96335.47;4877972;29;20281;-85
2022/02/06 18:44:54;;;;;;;4.60;2.37;;;;;;;18.78;45.64;96314.91;4878225;29;20767;-85
2022/02/06 18:47:26;;;;;;;4.83;2.50;;;;;;;18.88;45.70;96328.66;4892523;29;20769;-85
2022/02/06 18:49:53;;;;;;;5.17;2.10;;;;;;;18.84;45.74;96317.56;4863667;29;20348;-85
2022/02/06 18:52:20;;;;;;;5.03;2.30;;;;;;;18.75;45.86;96297.03;4877567;29;20374;-84
2022/02/06 18:54:46;;;;;;;4.53;2.37;;;;;;;18.86;45.95;96318.44;4861407;29;20245;-85
2022/02/06 18:57:17;;;;;;;3.63;2.10;;;;;;;18.88;45.98;96321.88;4877277;29;20305;-85
2022/02/06 18:59:46;;;;;;;4.93;1.97;;;;;;;18.98;45.88;96339.06;4878264;29;20258;-85
2022/02/06 19:02:13;;;;;;;4.37;2.43;;;;;;;18.84;46.13;96314.16;4877223;29;20293;-84
2022/02/06 19:04:40;;;;;;;4.50;2.33;;;;;;;18.74;45.86;96280.00;4866818;29;20215;-85
2022/02/06 19:07:08;;;;;;;3.60;2.27;;;;;;;18.85;45.87;96298.03;4873564;29;20286;-85
2022/02/06 19:09:41;;;;;;;6.07;2.30;;;;;;;18.63;45.86;96250.09;4862673;29;20234;-84
2022/02/06 19:12:09;;;;;;;5.80;2.37;;;;;;;18.84;45.77;96284.47;4878447;29;20947;-85
2022/02/06 19:14:36;;;;;;;3.37;1.97;;;;;;;18.86;45.92;96284.50;4878401;29;20300;-85
2022/02/06 19:17:03;;;;;;;3.00;2.23;;;;;;;18.87;45.52;96281.13;4862404;29;20265;-84
2022/02/06 19:19:30;;;;;;;4.80;2.27;;;;;;;18.76;45.92;96260.56;4861705;29;20232;-84
2022/02/06 19:21:56;;;;;;;2.87;1.93;;;;;;;18.87;45.77;96288.75;4865970;29;20209;-84
2022/02/06 19:24:25;;;;;;;7.67;2.70;;;;;;;18.80;45.73;96256.38;4866073;29;20878;-84
2022/02/06 19:26:52;;;;;;;4.33;2.33;;;;;;;18.96;46.12;96279.63;4866908;29;20197;-84
2022/02/06 19:29:21;;;;;;;4.60;2.27;;;;;;;18.70;45.90;96224.81;4867100;29;20751;-85
2022/02/06 19:31:49;;;;;;;4.00;2.20;;;;;;;18.79;45.77;96234.28;4866852;29;20252;-85
2022/02/06 19:34:23;;;;;;;4.93;2.20;;;;;;;18.75;46.03;96212.16;4866398;29;20246;-85
2022/02/06 19:36:53;;;;;;;3.47;1.87;;;;;;;18.94;45.92;96252.41;4868966;29;20981;-85
2022/02/06 19:39:20;;;;;;;2.73;2.00;;;;;;;18.74;46.07;96203.66;4896958;29;20257;-85
2022/02/06 20:33:06;;;;;;;5.17;2.33;;;;;;;18.85;46.08;96158.06;5841044;23;20605;-85
2022/02/06 20:35:34;;;;;;;2.77;1.70;;;;;;;18.96;46.32;96174.38;4874120;29;20281;-84
2022/02/06 20:38:01;;;;;;;3.60;2.00;;;;;;;18.75;46.04;96146.00;4884181;29;20297;-84
2022/02/06 20:40:28;;;;;;;2.80;1.80;;;;;;;18.77;46.33;96134.19;4884338;29;20229;-84
2022/02/06 20:42:54;;;;;;;2.50;1.70;;;;;;;18.95;46.41;96158.25;4871575;29;20244;-84
2022/02/06 20:45:21;;;;;;;2.70;1.70;;;;;;;18.95;46.23;96165.88;4866726;29;20246;-84
2022/02/06 20:47:48;;;;;;;2.30;1.70;;;;;;;18.88;46.30;96145.38;4866759;29;20628;-84
2022/02/06 20:50:14;;;;;;;3.17;1.77;;;;;;;18.81;46.33;96130.84;4893964;29;20236;-84
2022/02/06 20:52:41;;;;;;;4.67;1.90;;;;;;;19.01;46.29;96168.53;4879892;29;20210;-84
2022/02/06 20:55:09;;;;;;;2.77;1.87;;;;;;;19.10;46.19;96183.13;4868790;29;20283;-84
2022/02/06 20:57:37;;;;;;;2.40;1.97;;;;;;;18.96;46.18;96157.44;4892879;29;20301;-84
2022/02/06 21:00:05;;;;;;;2.80;1.83;;;;;;;18.58;46.11;96102.44;4900258;29;20324;-84
2022/02/06 21:02:32;;;;;;;2.50;1.63;;;;;;;18.75;46.26;96123.09;4886171;29;20694;-84
2022/02/06 21:05:00;;;;;;;2.70;1.60;;;;;;;18.91;46.16;96150.53;4899644;29;20252;-84
2022/02/06 21:07:27;;;;;;;2.27;1.50;;;;;;;19.06;46.38;96186.44;4882668;29;20202;-84
2022/02/06 21:09:53;;;;;;;4.90;1.77;;;;;;;18.97;46.07;96182.06;4900455;29;20321;-84